sensor_id;sensor_type;location;lat;lon;timestamp;P1;durP1;ratioP1;P2;durP2;ratioP2
49730;SDS011;35622;52.008;5.426;2023-04-24T00:01:39;3.83;;;1.98;;
49730;SDS011;35622;52.008;5.426;2023-04-24T00:04:05;3.65;;;2.30;;
49730;SDS011;35622;52.008;5.426;2023-04-24T00:06:32;2.97;;;2.17;;
49730;SDS011;35622;52.008;5.426;2023-04-24T00:09:01;3.13;;;2.00;;
49730;SDS011;35622;52.008;5.426;2023-04-24T00:11:28;2.92;;;1.80;;
49730;SDS011;35622;52.008;5.426;2023-04-24T00:13:54;2.75;;;1.60;;
49730;SDS011;35622;52.008;5.426;2023-04-24T00:16:21;5.38;;;1.83;;
49730;SDS011;35622;52.008;5.426;2023-04-24T00:18:46;2.65;;;1.90;;
49730;SDS011;35622;52.008;5.426;2023-04-24T00:21:13;3.72;;;1.98;;
49730;SDS011;35622;52.008;5.426;2023-04-24T00:23:42;4.40;;;1.92;;
49730;SDS011;35622;52.008;5.426;2023-04-24T00:26:08;3.00;;;2.08;;
49730;SDS011;35622;52.008;5.426;2023-04-24T00:28:34;2.38;;;1.80;;
49730;SDS011;35622;52.008;5.426;2023-04-24T00:31:00;3.75;;;1.75;;
49730;SDS011;35622;52.008;5.426;2023-04-24T00:33:25;3.03;;;1.70;;
49730;SDS011;35622;52.008;5.426;2023-04-24T00:35:51;2.33;;;1.70;;
49730;SDS011;35622;52.008;5.426;2023-04-24T00:38:16;7.10;;;2.13;;
49730;SDS011;35622;52.008;5.426;2023-04-24T00:40:42;6.18;;;1.88;;
49730;SDS011;35622;52.008;5.426;2023-04-24T00:43:08;3.22;;;1.63;;
49730;SDS011;35622;52.008;5.426;2023-04-24T00:45:33;2.63;;;1.63;;
49730;SDS011;35622;52.008;5.426;2023-04-24T00:47:59;4.45;;;1.92;;
49730;SDS011;35622;52.008;5.426;2023-04-24T00:50:26;4.55;;;1.70;;
49730;SDS011;35622;52.008;5.426;2023-04-24T00:52:52;3.78;;;1.80;;
49730;SDS011;35622;52.008;5.426;2023-04-24T00:55:17;3.67;;;1.80;;
49730;SDS011;35622;52.008;5.426;2023-04-24T00:57:43;3.40;;;2.10;;
49730;SDS011;35622;52.008;5.426;2023-04-24T01:00:10;2.90;;;1.92;;
49730;SDS011;35622;52.008;5.426;2023-04-24T01:02:38;4.35;;;2.58;;
49730;SDS011;35622;52.008;5.426;2023-04-24T01:05:05;4.28;;;2.28;;
49730;SDS011;35622;52.008;5.426;2023-04-24T01:07:32;3.80;;;2.53;;
49730;SDS011;35622;52.008;5.426;2023-04-24T01:09:58;4.50;;;2.70;;
49730;SDS011;35622;52.008;5.426;2023-04-24T01:12:24;4.28;;;2.67;;
49730;SDS011;35622;52.008;5.426;2023-04-24T01:14:49;7.18;;;2.83;;
49730;SDS011;35622;52.008;5.426;2023-04-24T01:17:15;4.20;;;2.72;;
49730;SDS011;35622;52.008;5.426;2023-04-24T01:19:41;4.00;;;2.53;;
49730;SDS011;35622;52.008;5.426;2023-04-24T01:22:15;3.72;;;2.70;;
49730;SDS011;35622;52.008;5.426;2023-04-24T01:24:42;3.70;;;2.35;;
49730;SDS011;35622;52.008;5.426;2023-04-24T01:27:08;4.93;;;2.50;;
49730;SDS011;35622;52.008;5.426;2023-04-24T01:29:35;3.80;;;2.45;;
49730;SDS011;35622;52.008;5.426;2023-04-24T01:32:03;2.97;;;2.35;;
49730;SDS011;35622;52.008;5.426;2023-04-24T01:34:29;3.55;;;2.45;;
49730;SDS011;35622;52.008;5.426;2023-04-24T01:36:55;3.15;;;2.40;;
49730;SDS011;35622;52.008;5.426;2023-04-24T01:39:21;5.78;;;2.28;;
49730;SDS011;35622;52.008;5.426;2023-04-24T01:41:50;3.67;;;2.08;;
49730;SDS011;35622;52.008;5.426;2023-04-24T01:44:16;3.05;;;2.17;;
49730;SDS011;35622;52.008;5.426;2023-04-24T01:46:43;3.20;;;1.98;;
49730;SDS011;35622;52.008;5.426;2023-04-24T01:49:09;4.72;;;1.80;;
49730;SDS011;35622;52.008;5.426;2023-04-24T01:51:35;3.78;;;2.47;;
49730;SDS011;35622;52.008;5.426;2023-04-24T01:54:02;3.95;;;2.00;;
49730;SDS011;35622;52.008;5.426;2023-04-24T01:56:28;6.60;;;2.47;;
49730;SDS011;35622;52.008;5.426;2023-04-24T01:58:55;5.45;;;2.40;;
49730;SDS011;35622;52.008;5.426;2023-04-24T02:01:21;4.15;;;3.17;;
49730;SDS011;35622;52.008;5.426;2023-04-24T02:03:49;5.40;;;3.05;;
49730;SDS011;35622;52.008;5.426;2023-04-24T02:06:14;3.95;;;3.00;;
49730;SDS011;35622;52.008;5.426;2023-04-24T02:08:40;3.42;;;2.67;;
49730;SDS011;35622;52.008;5.426;2023-04-24T02:11:06;5.38;;;3.05;;
49730;SDS011;35622;52.008;5.426;2023-04-24T02:13:33;5.72;;;3.47;;
49730;SDS011;35622;52.008;5.426;2023-04-24T02:15:59;4.93;;;3.58;;
49730;SDS011;35622;52.008;5.426;2023-04-24T02:18:24;6.50;;;4.20;;
49730;SDS011;35622;52.008;5.426;2023-04-24T02:20:50;5.25;;;3.78;;
49730;SDS011;35622;52.008;5.426;2023-04-24T02:23:16;5.07;;;3.28;;
49730;SDS011;35622;52.008;5.426;2023-04-24T02:25:41;5.10;;;3.15;;
49730;SDS011;35622;52.008;5.426;2023-04-24T02:28:07;4.97;;;3.72;;
49730;SDS011;35622;52.008;5.426;2023-04-24T02:30:32;5.57;;;4.05;;
49730;SDS011;35622;52.008;5.426;2023-04-24T02:32:58;6.43;;;3.53;;
49730;SDS011;35622;52.008;5.426;2023-04-24T02:35:24;5.93;;;3.13;;
49730;SDS011;35622;52.008;5.426;2023-04-24T02:37:49;5.53;;;3.80;;
49730;SDS011;35622;52.008;5.426;2023-04-24T02:40:15;6.13;;;3.80;;
49730;SDS011;35622;52.008;5.426;2023-04-24T02:42:41;7.90;;;3.78;;
49730;SDS011;35622;52.008;5.426;2023-04-24T02:45:06;5.43;;;3.83;;
49730;SDS011;35622;52.008;5.426;2023-04-24T02:47:32;6.53;;;4.43;;
49730;SDS011;35622;52.008;5.426;2023-04-24T02:49:58;5.68;;;3.80;;
49730;SDS011;35622;52.008;5.426;2023-04-24T02:52:24;5.97;;;3.88;;
49730;SDS011;35622;52.008;5.426;2023-04-24T02:54:49;5.43;;;4.10;;
49730;SDS011;35622;52.008;5.426;2023-04-24T02:57:15;9.75;;;5.65;;
49730;SDS011;35622;52.008;5.426;2023-04-24T02:59:40;9.05;;;5.10;;
49730;SDS011;35622;52.008;5.426;2023-04-24T03:02:06;7.60;;;5.75;;
49730;SDS011;35622;52.008;5.426;2023-04-24T03:04:32;8.10;;;5.35;;
49730;SDS011;35622;52.008;5.426;2023-04-24T03:06:57;6.90;;;5.13;;
49730;SDS011;35622;52.008;5.426;2023-04-24T03:09:23;8.07;;;4.82;;
49730;SDS011;35622;52.008;5.426;2023-04-24T03:11:49;7.03;;;4.70;;
49730;SDS011;35622;52.008;5.426;2023-04-24T03:14:15;9.15;;;5.00;;
49730;SDS011;35622;52.008;5.426;2023-04-24T03:16:41;9.25;;;5.25;;
49730;SDS011;35622;52.008;5.426;2023-04-24T03:19:07;7.55;;;5.10;;
49730;SDS011;35622;52.008;5.426;2023-04-24T03:21:33;8.35;;;5.93;;
49730;SDS011;35622;52.008;5.426;2023-04-24T03:24:00;10.07;;;6.63;;
49730;SDS011;35622;52.008;5.426;2023-04-24T03:26:27;9.40;;;6.45;;
49730;SDS011;35622;52.008;5.426;2023-04-24T03:28:52;8.35;;;5.57;;
49730;SDS011;35622;52.008;5.426;2023-04-24T03:31:18;10.20;;;6.90;;
49730;SDS011;35622;52.008;5.426;2023-04-24T03:33:46;10.05;;;6.55;;
49730;SDS011;35622;52.008;5.426;2023-04-24T03:36:14;10.27;;;7.03;;
49730;SDS011;35622;52.008;5.426;2023-04-24T03:38:42;12.02;;;7.20;;
49730;SDS011;35622;52.008;5.426;2023-04-24T03:41:08;10.00;;;6.70;;
49730;SDS011;35622;52.008;5.426;2023-04-24T03:43:33;10.85;;;7.10;;
49730;SDS011;35622;52.008;5.426;2023-04-24T03:46:00;12.98;;;8.30;;
49730;SDS011;35622;52.008;5.426;2023-04-24T03:48:27;13.43;;;8.18;;
49730;SDS011;35622;52.008;5.426;2023-04-24T03:50:52;11.27;;;7.03;;
49730;SDS011;35622;52.008;5.426;2023-04-24T03:53:18;11.55;;;7.47;;
49730;SDS011;35622;52.008;5.426;2023-04-24T03:55:44;8.95;;;5.93;;
49730;SDS011;35622;52.008;5.426;2023-04-24T03:58:10;7.45;;;4.68;;
49730;SDS011;35622;52.008;5.426;2023-04-24T04:00:36;7.30;;;4.78;;
49730;SDS011;35622;52.008;5.426;2023-04-24T04:03:02;6.18;;;3.60;;
49730;SDS011;35622;52.008;5.426;2023-04-24T04:05:28;4.63;;;2.88;;
49730;SDS011;35622;52.008;5.426;2023-04-24T04:07:54;6.38;;;2.50;;
49730;SDS011;35622;52.008;5.426;2023-04-24T04:10:20;3.30;;;2.08;;
49730;SDS011;35622;52.008;5.426;2023-04-24T04:12:45;3.38;;;1.98;;
49730;SDS011;35622;52.008;5.426;2023-04-24T04:15:11;3.17;;;2.15;;
49730;SDS011;35622;52.008;5.426;2023-04-24T04:17:36;4.22;;;1.70;;
49730;SDS011;35622;52.008;5.426;2023-04-24T04:20:03;3.15;;;1.80;;
49730;SDS011;35622;52.008;5.426;2023-04-24T04:22:33;3.08;;;2.10;;
49730;SDS011;35622;52.008;5.426;2023-04-24T04:24:59;2.75;;;1.75;;
49730;SDS011;35622;52.008;5.426;2023-04-24T04:27:24;4.68;;;2.25;;
49730;SDS011;35622;52.008;5.426;2023-04-24T04:29:50;3.88;;;2.38;;
49730;SDS011;35622;52.008;5.426;2023-04-24T04:32:16;5.53;;;2.05;;
49730;SDS011;35622;52.008;5.426;2023-04-24T04:34:41;4.13;;;2.08;;
49730;SDS011;35622;52.008;5.426;2023-04-24T04:37:07;3.75;;;2.20;;
49730;SDS011;35622;52.008;5.426;2023-04-24T04:39:33;4.38;;;2.30;;
49730;SDS011;35622;52.008;5.426;2023-04-24T04:41:59;5.18;;;2.83;;
49730;SDS011;35622;52.008;5.426;2023-04-24T04:44:25;4.57;;;2.92;;
49730;SDS011;35622;52.008;5.426;2023-04-24T04:46:53;5.18;;;3.28;;
49730;SDS011;35622;52.008;5.426;2023-04-24T04:49:21;4.90;;;3.08;;
49730;SDS011;35622;52.008;5.426;2023-04-24T04:51:48;6.05;;;3.60;;
49730;SDS011;35622;52.008;5.426;2023-04-24T04:54:15;5.28;;;3.35;;
49730;SDS011;35622;52.008;5.426;2023-04-24T04:56:41;7.97;;;4.00;;
49730;SDS011;35622;52.008;5.426;2023-04-24T04:59:07;5.63;;;3.20;;
49730;SDS011;35622;52.008;5.426;2023-04-24T05:01:32;5.80;;;3.72;;
49730;SDS011;35622;52.008;5.426;2023-04-24T05:03:58;7.22;;;3.90;;
49730;SDS011;35622;52.008;5.426;2023-04-24T05:06:23;6.43;;;3.78;;
49730;SDS011;35622;52.008;5.426;2023-04-24T05:08:50;5.78;;;3.50;;
49730;SDS011;35622;52.008;5.426;2023-04-24T05:11:16;7.07;;;3.97;;
49730;SDS011;35622;52.008;5.426;2023-04-24T05:13:42;7.22;;;3.97;;
49730;SDS011;35622;52.008;5.426;2023-04-24T05:16:08;6.43;;;3.85;;
49730;SDS011;35622;52.008;5.426;2023-04-24T05:18:33;6.75;;;4.13;;
49730;SDS011;35622;52.008;5.426;2023-04-24T05:20:59;4.63;;;2.80;;
49730;SDS011;35622;52.008;5.426;2023-04-24T05:23:25;5.18;;;3.38;;
49730;SDS011;35622;52.008;5.426;2023-04-24T05:25:50;5.82;;;3.67;;
49730;SDS011;35622;52.008;5.426;2023-04-24T05:28:16;6.13;;;2.85;;
49730;SDS011;35622;52.008;5.426;2023-04-24T05:30:41;4.65;;;2.92;;
49730;SDS011;35622;52.008;5.426;2023-04-24T05:33:07;5.63;;;3.35;;
49730;SDS011;35622;52.008;5.426;2023-04-24T05:35:33;4.53;;;2.50;;
49730;SDS011;35622;52.008;5.426;2023-04-24T05:37:59;3.47;;;2.15;;
49730;SDS011;35622;52.008;5.426;2023-04-24T05:40:25;4.68;;;2.97;;
49730;SDS011;35622;52.008;5.426;2023-04-24T05:42:50;6.18;;;3.55;;
49730;SDS011;35622;52.008;5.426;2023-04-24T05:45:16;5.40;;;3.22;;
49730;SDS011;35622;52.008;5.426;2023-04-24T05:47:42;5.15;;;3.50;;
49730;SDS011;35622;52.008;5.426;2023-04-24T05:50:11;4.15;;;3.00;;
49730;SDS011;35622;52.008;5.426;2023-04-24T05:52:37;3.35;;;2.40;;
49730;SDS011;35622;52.008;5.426;2023-04-24T05:55:03;4.28;;;2.92;;
49730;SDS011;35622;52.008;5.426;2023-04-24T05:57:29;5.53;;;2.85;;
49730;SDS011;35622;52.008;5.426;2023-04-24T05:59:55;4.30;;;3.10;;
49730;SDS011;35622;52.008;5.426;2023-04-24T06:02:20;4.38;;;2.88;;
49730;SDS011;35622;52.008;5.426;2023-04-24T06:04:46;4.03;;;2.55;;
49730;SDS011;35622;52.008;5.426;2023-04-24T06:07:12;10.13;;;2.83;;
49730;SDS011;35622;52.008;5.426;2023-04-24T06:09:38;5.40;;;2.85;;
49730;SDS011;35622;52.008;5.426;2023-04-24T06:12:04;5.47;;;3.13;;
49730;SDS011;35622;52.008;5.426;2023-04-24T06:14:29;6.38;;;3.38;;
49730;SDS011;35622;52.008;5.426;2023-04-24T06:16:55;4.28;;;2.30;;
49730;SDS011;35622;52.008;5.426;2023-04-24T06:19:20;4.25;;;2.00;;
49730;SDS011;35622;52.008;5.426;2023-04-24T06:21:46;4.40;;;2.17;;
49730;SDS011;35622;52.008;5.426;2023-04-24T06:24:13;4.20;;;2.40;;
49730;SDS011;35622;52.008;5.426;2023-04-24T06:26:41;2.00;;;1.33;;
49730;SDS011;35622;52.008;5.426;2023-04-24T06:29:07;2.40;;;1.50;;
49730;SDS011;35622;52.008;5.426;2023-04-24T06:31:32;2.45;;;1.35;;
49730;SDS011;35622;52.008;5.426;2023-04-24T06:34:01;2.15;;;1.30;;
49730;SDS011;35622;52.008;5.426;2023-04-24T06:36:27;2.65;;;1.45;;
49730;SDS011;35622;52.008;5.426;2023-04-24T06:38:53;2.30;;;1.30;;
49730;SDS011;35622;52.008;5.426;2023-04-24T06:41:19;2.13;;;1.23;;
49730;SDS011;35622;52.008;5.426;2023-04-24T06:43:45;2.63;;;1.20;;
49730;SDS011;35622;52.008;5.426;2023-04-24T06:46:10;1.48;;;1.10;;
49730;SDS011;35622;52.008;5.426;2023-04-24T06:48:36;1.15;;;0.98;;
49730;SDS011;35622;52.008;5.426;2023-04-24T06:51:02;2.00;;;1.38;;
49730;SDS011;35622;52.008;5.426;2023-04-24T06:53:28;2.15;;;1.25;;
49730;SDS011;35622;52.008;5.426;2023-04-24T06:55:53;2.58;;;1.42;;
49730;SDS011;35622;52.008;5.426;2023-04-24T06:58:19;3.13;;;1.52;;
49730;SDS011;35622;52.008;5.426;2023-04-24T07:00:45;5.63;;;2.63;;
49730;SDS011;35622;52.008;5.426;2023-04-24T07:03:11;4.35;;;2.45;;
49730;SDS011;35622;52.008;5.426;2023-04-24T07:05:36;6.97;;;3.58;;
49730;SDS011;35622;52.008;5.426;2023-04-24T07:08:03;5.35;;;3.17;;
49730;SDS011;35622;52.008;5.426;2023-04-24T07:10:28;5.07;;;3.13;;
49730;SDS011;35622;52.008;5.426;2023-04-24T07:12:55;8.43;;;5.05;;
49730;SDS011;35622;52.008;5.426;2023-04-24T07:15:21;8.63;;;5.25;;
49730;SDS011;35622;52.008;5.426;2023-04-24T07:17:48;11.95;;;6.50;;
49730;SDS011;35622;52.008;5.426;2023-04-24T07:20:13;11.32;;;7.43;;
49730;SDS011;35622;52.008;5.426;2023-04-24T07:22:39;15.25;;;8.00;;
49730;SDS011;35622;52.008;5.426;2023-04-24T07:25:05;16.42;;;8.13;;
49730;SDS011;35622;52.008;5.426;2023-04-24T07:27:32;11.55;;;8.05;;
49730;SDS011;35622;52.008;5.426;2023-04-24T07:29:58;16.27;;;8.80;;
49730;SDS011;35622;52.008;5.426;2023-04-24T07:32:24;14.60;;;7.57;;
49730;SDS011;35622;52.008;5.426;2023-04-24T07:34:50;17.23;;;8.60;;
49730;SDS011;35622;52.008;5.426;2023-04-24T07:37:15;10.93;;;7.50;;
49730;SDS011;35622;52.008;5.426;2023-04-24T07:39:41;12.95;;;8.32;;
49730;SDS011;35622;52.008;5.426;2023-04-24T07:42:07;17.00;;;9.35;;
49730;SDS011;35622;52.008;5.426;2023-04-24T07:44:32;13.15;;;8.13;;
49730;SDS011;35622;52.008;5.426;2023-04-24T07:46:58;12.80;;;7.93;;
49730;SDS011;35622;52.008;5.426;2023-04-24T07:49:23;16.63;;;7.53;;
49730;SDS011;35622;52.008;5.426;2023-04-24T07:51:49;12.60;;;7.80;;
49730;SDS011;35622;52.008;5.426;2023-04-24T07:54:15;13.57;;;7.85;;
49730;SDS011;35622;52.008;5.426;2023-04-24T07:56:41;15.02;;;7.68;;
49730;SDS011;35622;52.008;5.426;2023-04-24T07:59:08;16.52;;;8.57;;
49730;SDS011;35622;52.008;5.426;2023-04-24T08:01:34;13.65;;;7.93;;
49730;SDS011;35622;52.008;5.426;2023-04-24T08:04:00;13.35;;;7.93;;
49730;SDS011;35622;52.008;5.426;2023-04-24T08:06:26;15.13;;;8.32;;
49730;SDS011;35622;52.008;5.426;2023-04-24T08:08:55;13.93;;;7.75;;
49730;SDS011;35622;52.008;5.426;2023-04-24T08:11:21;14.63;;;7.80;;
49730;SDS011;35622;52.008;5.426;2023-04-24T08:13:46;16.17;;;7.70;;
49730;SDS011;35622;52.008;5.426;2023-04-24T08:16:12;12.10;;;7.05;;
49730;SDS011;35622;52.008;5.426;2023-04-24T08:18:38;13.18;;;7.28;;
49730;SDS011;35622;52.008;5.426;2023-04-24T08:21:03;17.73;;;7.20;;
49730;SDS011;35622;52.008;5.426;2023-04-24T08:23:29;16.30;;;6.30;;
49730;SDS011;35622;52.008;5.426;2023-04-24T08:25:55;13.45;;;5.88;;
49730;SDS011;35622;52.008;5.426;2023-04-24T08:28:21;17.40;;;6.10;;
49730;SDS011;35622;52.008;5.426;2023-04-24T08:30:47;12.75;;;5.35;;
49730;SDS011;35622;52.008;5.426;2023-04-24T08:33:13;16.20;;;5.25;;
49730;SDS011;35622;52.008;5.426;2023-04-24T08:35:39;10.57;;;4.57;;
49730;SDS011;35622;52.008;5.426;2023-04-24T08:38:05;11.73;;;3.72;;
49730;SDS011;35622;52.008;5.426;2023-04-24T08:40:30;14.65;;;4.55;;
49730;SDS011;35622;52.008;5.426;2023-04-24T08:42:59;14.88;;;4.10;;
49730;SDS011;35622;52.008;5.426;2023-04-24T08:45:25;10.50;;;3.28;;
49730;SDS011;35622;52.008;5.426;2023-04-24T08:47:52;10.05;;;3.00;;
49730;SDS011;35622;52.008;5.426;2023-04-24T08:50:19;9.75;;;2.90;;
49730;SDS011;35622;52.008;5.426;2023-04-24T08:52:46;10.13;;;3.22;;
49730;SDS011;35622;52.008;5.426;2023-04-24T08:55:14;14.27;;;2.55;;
49730;SDS011;35622;52.008;5.426;2023-04-24T08:57:41;10.10;;;2.80;;
49730;SDS011;35622;52.008;5.426;2023-04-24T09:00:10;7.03;;;2.60;;
49730;SDS011;35622;52.008;5.426;2023-04-24T09:02:36;11.57;;;2.95;;
49730;SDS011;35622;52.008;5.426;2023-04-24T09:05:04;12.57;;;2.88;;
49730;SDS011;35622;52.008;5.426;2023-04-24T09:07:30;8.57;;;2.60;;
49730;SDS011;35622;52.008;5.426;2023-04-24T09:10:01;10.20;;;2.00;;
49730;SDS011;35622;52.008;5.426;2023-04-24T09:12:27;7.50;;;2.03;;
49730;SDS011;35622;52.008;5.426;2023-04-24T09:14:52;6.63;;;2.13;;
49730;SDS011;35622;52.008;5.426;2023-04-24T09:17:20;8.65;;;1.80;;
49730;SDS011;35622;52.008;5.426;2023-04-24T09:19:47;9.40;;;2.13;;
49730;SDS011;35622;52.008;5.426;2023-04-24T09:22:13;6.38;;;1.85;;
49730;SDS011;35622;52.008;5.426;2023-04-24T09:24:40;9.60;;;2.05;;
49730;SDS011;35622;52.008;5.426;2023-04-24T09:27:05;8.48;;;2.08;;
49730;SDS011;35622;52.008;5.426;2023-04-24T09:29:32;9.70;;;2.20;;
49730;SDS011;35622;52.008;5.426;2023-04-24T09:31:58;8.63;;;1.77;;
49730;SDS011;35622;52.008;5.426;2023-04-24T09:34:24;11.80;;;2.08;;
49730;SDS011;35622;52.008;5.426;2023-04-24T09:36:51;6.32;;;1.90;;
49730;SDS011;35622;52.008;5.426;2023-04-24T09:39:17;12.27;;;2.20;;
49730;SDS011;35622;52.008;5.426;2023-04-24T09:41:52;10.00;;;2.00;;
49730;SDS011;35622;52.008;5.426;2023-04-24T09:46:48;4.90;;;1.80;;
49730;SDS011;35622;52.008;5.426;2023-04-24T09:49:25;9.95;;;2.13;;
49730;SDS011;35622;52.008;5.426;2023-04-24T09:51:52;8.05;;;1.98;;
49730;SDS011;35622;52.008;5.426;2023-04-24T09:54:27;6.72;;;2.30;;
49730;SDS011;35622;52.008;5.426;2023-04-24T09:56:54;6.55;;;2.13;;
49730;SDS011;35622;52.008;5.426;2023-04-24T09:59:21;6.95;;;2.10;;
49730;SDS011;35622;52.008;5.426;2023-04-24T10:01:47;8.18;;;2.00;;
49730;SDS011;35622;52.008;5.426;2023-04-24T10:04:17;5.15;;;1.75;;
49730;SDS011;35622;52.008;5.426;2023-04-24T10:06:45;7.00;;;1.73;;
49730;SDS011;35622;52.008;5.426;2023-04-24T10:09:12;7.40;;;2.13;;
49730;SDS011;35622;52.008;5.426;2023-04-24T10:11:41;6.47;;;1.60;;
49730;SDS011;35622;52.008;5.426;2023-04-24T10:14:18;5.15;;;1.52;;
49730;SDS011;35622;52.008;5.426;2023-04-24T10:16:46;4.07;;;1.42;;
49730;SDS011;35622;52.008;5.426;2023-04-24T10:19:13;5.40;;;1.30;;
49730;SDS011;35622;52.008;5.426;2023-04-24T10:21:40;3.95;;;1.27;;
49730;SDS011;35622;52.008;5.426;2023-04-24T10:24:08;8.82;;;1.80;;
49730;SDS011;35622;52.008;5.426;2023-04-24T10:26:34;7.20;;;1.55;;
49730;SDS011;35622;52.008;5.426;2023-04-24T10:29:00;7.28;;;1.40;;
49730;SDS011;35622;52.008;5.426;2023-04-24T10:31:27;7.18;;;1.50;;
49730;SDS011;35622;52.008;5.426;2023-04-24T10:33:55;5.15;;;1.50;;
49730;SDS011;35622;52.008;5.426;2023-04-24T10:36:23;4.43;;;1.17;;
49730;SDS011;35622;52.008;5.426;2023-04-24T10:38:51;6.40;;;1.00;;
49730;SDS011;35622;52.008;5.426;2023-04-24T10:41:19;4.07;;;0.90;;
49730;SDS011;35622;52.008;5.426;2023-04-24T10:44:03;5.85;;;0.93;;
49730;SDS011;35622;52.008;5.426;2023-04-24T10:46:33;4.18;;;1.15;;
49730;SDS011;35622;52.008;5.426;2023-04-24T10:48:59;4.20;;;0.75;;
49730;SDS011;35622;52.008;5.426;2023-04-24T10:54:26;2.85;;;0.70;;
49730;SDS011;35622;52.008;5.426;2023-04-24T10:59:44;4.85;;;0.80;;
49730;SDS011;35622;52.008;5.426;2023-04-24T11:02:10;4.03;;;0.70;;
49730;SDS011;35622;52.008;5.426;2023-04-24T11:04:36;3.33;;;0.70;;
49730;SDS011;35622;52.008;5.426;2023-04-24T11:07:04;2.95;;;0.70;;
49730;SDS011;35622;52.008;5.426;2023-04-24T11:09:32;2.45;;;0.50;;
49730;SDS011;35622;52.008;5.426;2023-04-24T11:12:04;2.65;;;0.60;;
49730;SDS011;35622;52.008;5.426;2023-04-24T11:17:37;2.10;;;0.52;;
49730;SDS011;35622;52.008;5.426;2023-04-24T11:20:05;2.45;;;0.47;;
49730;SDS011;35622;52.008;5.426;2023-04-24T11:22:35;1.58;;;0.60;;
49730;SDS011;35622;52.008;5.426;2023-04-24T11:25:03;1.05;;;0.60;;
49730;SDS011;35622;52.008;5.426;2023-04-24T11:27:30;2.25;;;0.60;;
49730;SDS011;35622;52.008;5.426;2023-04-24T11:32:26;2.40;;;0.70;;
49730;SDS011;35622;52.008;5.426;2023-04-24T11:34:54;2.88;;;0.57;;
49730;SDS011;35622;52.008;5.426;2023-04-24T11:37:22;3.95;;;0.68;;
49730;SDS011;35622;52.008;5.426;2023-04-24T11:39:50;3.22;;;0.70;;
49730;SDS011;35622;52.008;5.426;2023-04-24T11:42:16;4.22;;;0.60;;
49730;SDS011;35622;52.008;5.426;2023-04-24T11:44:44;4.28;;;0.70;;
49730;SDS011;35622;52.008;5.426;2023-04-24T11:47:12;4.97;;;0.98;;
49730;SDS011;35622;52.008;5.426;2023-04-24T11:49:38;3.75;;;0.80;;
49730;SDS011;35622;52.008;5.426;2023-04-24T11:52:04;3.83;;;0.90;;
49730;SDS011;35622;52.008;5.426;2023-04-24T11:54:30;2.60;;;0.88;;
49730;SDS011;35622;52.008;5.426;2023-04-24T11:56:56;3.25;;;0.88;;
49730;SDS011;35622;52.008;5.426;2023-04-24T11:59:22;1.77;;;0.75;;
49730;SDS011;35622;52.008;5.426;2023-04-24T12:01:48;1.73;;;0.60;;
49730;SDS011;35622;52.008;5.426;2023-04-24T12:04:14;3.70;;;0.68;;
49730;SDS011;35622;52.008;5.426;2023-04-24T12:07:01;1.95;;;0.45;;
49730;SDS011;35622;52.008;5.426;2023-04-24T12:09:43;1.33;;;0.40;;
49730;SDS011;35622;52.008;5.426;2023-04-24T12:12:13;1.13;;;0.30;;
49730;SDS011;35622;52.008;5.426;2023-04-24T12:14:43;1.17;;;0.40;;
49730;SDS011;35622;52.008;5.426;2023-04-24T12:17:10;5.20;;;0.57;;
49730;SDS011;35622;52.008;5.426;2023-04-24T12:19:35;2.35;;;0.70;;
49730;SDS011;35622;52.008;5.426;2023-04-24T12:22:05;2.22;;;0.80;;
49730;SDS011;35622;52.008;5.426;2023-04-24T12:24:31;1.23;;;0.60;;
49730;SDS011;35622;52.008;5.426;2023-04-24T12:26:57;1.55;;;0.52;;
49730;SDS011;35622;52.008;5.426;2023-04-24T12:29:23;2.13;;;0.60;;
49730;SDS011;35622;52.008;5.426;2023-04-24T12:31:50;4.35;;;0.70;;
49730;SDS011;35622;52.008;5.426;2023-04-24T12:34:20;2.67;;;0.70;;
49730;SDS011;35622;52.008;5.426;2023-04-24T12:36:47;3.83;;;0.80;;
49730;SDS011;35622;52.008;5.426;2023-04-24T12:39:19;1.58;;;0.73;;
49730;SDS011;35622;52.008;5.426;2023-04-24T12:41:57;2.70;;;0.70;;
49730;SDS011;35622;52.008;5.426;2023-04-24T12:44:34;2.33;;;0.90;;
49730;SDS011;35622;52.008;5.426;2023-04-24T12:47:01;4.72;;;1.00;;
49730;SDS011;35622;52.008;5.426;2023-04-24T12:49:27;2.33;;;0.77;;
49730;SDS011;35622;52.008;5.426;2023-04-24T12:51:55;3.58;;;0.93;;
49730;SDS011;35622;52.008;5.426;2023-04-24T12:54:21;5.28;;;1.17;;
49730;SDS011;35622;52.008;5.426;2023-04-24T12:56:47;6.82;;;1.08;;
49730;SDS011;35622;52.008;5.426;2023-04-24T12:59:12;5.60;;;1.17;;
49730;SDS011;35622;52.008;5.426;2023-04-24T13:01:38;2.92;;;0.90;;
49730;SDS011;35622;52.008;5.426;2023-04-24T13:04:04;3.85;;;1.00;;
49730;SDS011;35622;52.008;5.426;2023-04-24T13:06:30;6.60;;;1.15;;
49730;SDS011;35622;52.008;5.426;2023-04-24T13:08:56;3.20;;;1.20;;
49730;SDS011;35622;52.008;5.426;2023-04-24T13:11:22;6.07;;;1.20;;
49730;SDS011;35622;52.008;5.426;2023-04-24T13:13:49;3.67;;;0.88;;
49730;SDS011;35622;52.008;5.426;2023-04-24T13:16:15;5.72;;;1.42;;
49730;SDS011;35622;52.008;5.426;2023-04-24T13:18:40;8.90;;;1.35;;
49730;SDS011;35622;52.008;5.426;2023-04-24T13:21:06;4.80;;;0.90;;
49730;SDS011;35622;52.008;5.426;2023-04-24T13:23:31;5.65;;;1.10;;
49730;SDS011;35622;52.008;5.426;2023-04-24T13:25:57;5.10;;;1.30;;
49730;SDS011;35622;52.008;5.426;2023-04-24T13:28:24;5.85;;;1.10;;
49730;SDS011;35622;52.008;5.426;2023-04-24T13:30:50;3.92;;;1.10;;
49730;SDS011;35622;52.008;5.426;2023-04-24T13:33:16;6.10;;;1.20;;
49730;SDS011;35622;52.008;5.426;2023-04-24T13:35:41;2.50;;;1.00;;
49730;SDS011;35622;52.008;5.426;2023-04-24T13:38:07;4.57;;;1.27;;
49730;SDS011;35622;52.008;5.426;2023-04-24T13:40:33;6.25;;;1.30;;
49730;SDS011;35622;52.008;5.426;2023-04-24T13:42:59;8.77;;;1.55;;
49730;SDS011;35622;52.008;5.426;2023-04-24T13:45:24;10.25;;;1.80;;
49730;SDS011;35622;52.008;5.426;2023-04-24T13:47:50;9.23;;;1.38;;
49730;SDS011;35622;52.008;5.426;2023-04-24T13:50:15;7.13;;;1.40;;
49730;SDS011;35622;52.008;5.426;2023-04-24T13:52:41;3.42;;;1.00;;
49730;SDS011;35622;52.008;5.426;2023-04-24T13:55:07;6.38;;;1.50;;
49730;SDS011;35622;52.008;5.426;2023-04-24T13:57:32;3.08;;;1.30;;
49730;SDS011;35622;52.008;5.426;2023-04-24T13:59:58;6.03;;;1.50;;
49730;SDS011;35622;52.008;5.426;2023-04-24T14:02:28;5.60;;;1.50;;
49730;SDS011;35622;52.008;5.426;2023-04-24T14:04:54;7.45;;;1.50;;
49730;SDS011;35622;52.008;5.426;2023-04-24T14:07:20;7.40;;;1.50;;
49730;SDS011;35622;52.008;5.426;2023-04-24T14:09:46;4.57;;;1.30;;
49730;SDS011;35622;52.008;5.426;2023-04-24T14:12:11;7.82;;;1.92;;
49730;SDS011;35622;52.008;5.426;2023-04-24T14:14:37;4.30;;;1.55;;
49730;SDS011;35622;52.008;5.426;2023-04-24T14:17:03;4.03;;;1.30;;
49730;SDS011;35622;52.008;5.426;2023-04-24T14:19:28;5.57;;;1.50;;
49730;SDS011;35622;52.008;5.426;2023-04-24T14:21:54;5.60;;;1.38;;
49730;SDS011;35622;52.008;5.426;2023-04-24T14:24:21;6.88;;;1.65;;
49730;SDS011;35622;52.008;5.426;2023-04-24T14:26:47;5.32;;;1.60;;
49730;SDS011;35622;52.008;5.426;2023-04-24T14:29:12;5.43;;;1.65;;
49730;SDS011;35622;52.008;5.426;2023-04-24T14:31:38;7.63;;;1.95;;
49730;SDS011;35622;52.008;5.426;2023-04-24T14:34:03;7.90;;;1.88;;
49730;SDS011;35622;52.008;5.426;2023-04-24T14:36:29;8.48;;;1.95;;
49730;SDS011;35622;52.008;5.426;2023-04-24T14:38:56;8.55;;;1.70;;
49730;SDS011;35622;52.008;5.426;2023-04-24T14:41:22;10.90;;;6.95;;
49730;SDS011;35622;52.008;5.426;2023-04-24T14:43:47;7.28;;;2.65;;
49730;SDS011;35622;52.008;5.426;2023-04-24T14:46:13;8.57;;;2.17;;
49730;SDS011;35622;52.008;5.426;2023-04-24T14:48:38;8.70;;;2.97;;
49730;SDS011;35622;52.008;5.426;2023-04-24T14:51:04;8.68;;;2.78;;
49730;SDS011;35622;52.008;5.426;2023-04-24T14:53:30;8.23;;;3.45;;
49730;SDS011;35622;52.008;5.426;2023-04-24T14:55:55;6.95;;;2.10;;